Time;durP1;ratioP1;P1;durP2;ratioP2;P2;SDS_P1;SDS_P2;PMS_P1;PMS_P2;Temp;Humidity;BMP_temperature;BMP_pressure;BME280_temperature;BME280_humidity;BME280_pressure;Samples;Min_cycle;Max_cycle;Signal;HPM_P1;HPM_P2
2023/02/19 00:02:34;;;;;;;16.80;15.10;;;;;;;4.64;74.49;100102.51;110617;1262;22004;-79
2023/02/19 00:05:15;;;;;;;13.50;12.20;;;;;;;4.66;74.51;100105.23;110961;1260;21964;-80
2023/02/19 00:08:04;;;;;;;12.90;11.80;;;;;;;4.69;74.47;100107.77;110657;1256;23722;-79
2023/02/19 00:10:49;;;;;;;11.70;10.70;;;;;;;4.71;74.43;100102.74;110858;1257;23707;-79
2023/02/19 00:13:45;;;;;;;13.10;11.10;;;;;;;4.74;74.47;100093.39;110805;1262;21967;-79
2023/02/19 00:16:40;;;;;;;11.30;10.30;;;;;;;4.78;74.40;100095.73;109809;1265;22066;-79
2023/02/19 00:19:37;;;;;;;12.20;11.00;;;;;;;4.80;74.31;100100.17;110070;1262;21972;-80
2023/02/19 00:22:39;;;;;;;12.40;11.20;;;;;;;4.81;74.24;100093.27;110706;1260;22076;-79
2023/02/19 00:25:29;;;;;;;10.40;9.30;;;;;;;4.82;74.17;100091.69;110345;1264;21997;-80
2023/02/19 00:28:21;;;;;;;10.70;9.40;;;;;;;4.82;74.20;100088.06;110122;1264;21992;-80
2023/02/19 00:31:40;;;;;;;9.20;8.20;;;;;;;4.82;74.16;100091.52;110569;1262;21998;-77
2023/02/19 00:34:35;;;;;;;8.70;7.80;;;;;;;4.84;74.14;100099.92;110616;1259;21981;-79
2023/02/19 00:37:18;;;;;;;8.70;7.90;;;;;;;4.88;73.98;100098.63;110777;1257;21972;-77
2023/02/19 00:39:48;;;;;;;8.60;7.80;;;;;;;4.93;73.95;100095.11;110702;1260;22833;-78
2023/02/19 00:42:22;;;;;;;9.60;8.60;;;;;;;4.98;73.97;100093.45;110741;1259;23023;-78
2023/02/19 00:45:03;;;;;;;8.80;8.00;;;;;;;5.02;73.84;100088.20;110966;1254;21984;-77
2023/02/19 00:47:42;;;;;;;7.80;7.10;;;;;;;5.04;73.81;100081.78;111045;1256;21962;-79
2023/02/19 00:50:52;;;;;;;6.90;6.20;;;;;;;5.02;73.79;100078.91;110531;1264;23599;-82
2023/02/19 00:53:36;;;;;;;8.20;6.60;;;;;;;4.99;73.68;100076.55;110570;1264;22433;-81
2023/02/19 00:56:26;;;;;;;7.10;6.40;;;;;;;4.97;73.69;100075.38;110429;1264;22019;-79
2023/02/19 00:59:12;;;;;;;8.40;7.50;;;;;;;4.95;73.51;100071.62;110336;1264;21946;-80
2023/02/19 01:01:59;;;;;;;8.40;7.60;;;;;;;4.93;73.51;100066.98;110327;1264;21981;-80
2023/02/19 01:04:34;;;;;;;7.70;7.00;;;;;;;4.92;73.53;100064.95;110427;1257;23604;-79
2023/02/19 01:07:24;;;;;;;11.10;8.50;;;;;;;4.92;73.59;100058.92;110384;1261;21989;-79
2023/02/19 01:10:12;;;;;;;10.30;9.30;;;;;;;4.91;73.60;100056.50;110345;1265;24159;-78
2023/02/19 01:13:27;;;;;;;8.90;8.00;;;;;;;4.89;73.55;100055.67;110270;1265;22323;-78
2023/02/19 01:16:22;;;;;;;9.80;8.90;;;;;;;4.88;73.57;100055.52;110127;1266;22012;-79
2023/02/19 01:19:17;;;;;;;10.60;9.50;;;;;;;4.87;73.60;100055.55;110611;1260;23593;-80
2023/02/19 01:21:57;;;;;;;10.10;9.10;;;;;;;4.88;73.66;100052.94;110483;1255;21973;-80
2023/02/19 01:24:51;;;;;;;11.10;10.10;;;;;;;4.90;73.58;100051.19;111014;1255;21982;-80
2023/02/19 01:27:35;;;;;;;11.40;10.30;;;;;;;4.89;73.49;100043.09;111172;1255;22482;-79
2023/02/19 01:30:30;;;;;;;11.10;9.80;;;;;;;4.88;73.48;100032.60;110912;1255;21962;-79
2023/02/19 01:33:19;;;;;;;13.30;11.80;;;;;;;4.85;73.40;100035.24;110906;1255;21956;-80
2023/02/19 01:36:12;;;;;;;13.20;11.80;;;;;;;4.83;73.38;100034.77;111080;1252;23020;-79
2023/02/19 01:39:02;;;;;;;13.60;11.20;;;;;;;4.84;73.45;100027.69;111047;1256;21983;-77
2023/02/19 01:41:43;;;;;;;12.50;11.20;;;;;;;4.84;73.35;100025.96;110537;1262;22721;-78
2023/02/19 01:44:19;;;;;;;11.40;10.30;;;;;;;4.83;73.30;100022.70;110538;1262;23553;-79
2023/02/19 01:47:12;;;;;;;12.00;10.90;;;;;;;4.83;73.40;100019.77;110627;1262;21974;-79
2023/02/19 01:49:55;;;;;;;11.60;10.60;;;;;;;4.79;73.35;100012.60;110225;1260;22145;-78
2023/02/19 01:52:50;;;;;;;11.60;10.50;;;;;;;4.79;73.37;100015.02;110431;1262;24382;-78
2023/02/19 01:55:38;;;;;;;12.80;11.50;;;;;;;4.79;73.48;100023.98;110710;1259;23671;-79
2023/02/19 01:58:16;;;;;;;11.80;10.80;;;;;;;4.79;73.46;100025.88;110514;1263;22838;-78
2023/02/19 02:01:02;;;;;;;11.00;10.10;;;;;;;4.79;73.37;100018.64;110881;1256;21980;-78
2023/02/19 02:03:41;;;;;;;11.80;10.70;;;;;;;4.78;73.38;100020.23;110726;1256;23583;-79
2023/02/19 02:06:36;;;;;;;11.50;10.50;;;;;;;4.78;73.42;100017.10;110697;1256;22053;-79
2023/02/19 02:12:31;;;;;;;11.20;10.20;;;;;;;4.76;73.35;100011.64;110675;1262;21971;-78
2023/02/19 02:15:15;;;;;;;11.60;10.50;;;;;;;4.75;73.36;100009.25;110523;1262;22679;-78
2023/02/19 02:18:02;;;;;;;10.70;9.20;;;;;;;4.75;73.27;100003.73;110427;1261;21965;-77
2023/02/19 02:21:20;;;;;;;9.40;8.50;;;;;;;4.74;73.38;99998.05;110452;1261;22069;-79
2023/02/19 02:24:34;;;;;;;11.10;8.90;;;;;;;4.74;73.46;99991.33;110677;1262;21967;-79
2023/02/19 02:27:26;;;;;;;10.00;7.60;;;;;;;4.71;73.38;99985.52;110675;1261;22061;-79
2023/02/19 02:30:22;;;;;;;9.30;7.80;;;;;;;4.70;73.21;99986.41;110726;1256;22667;-78
2023/02/19 02:33:27;;;;;;;10.10;8.10;;;;;;;4.67;73.20;99987.66;110801;1257;21971;-77
2023/02/19 02:36:13;;;;;;;9.70;8.70;;;;;;;4.65;73.08;99988.75;110744;1261;23075;-78
2023/02/19 02:38:57;;;;;;;;;;;;;;;;;;;;;
2023/02/19 02:41:34;;;;;;;11.10;8.40;;;;;;;4.66;73.17;99990.10;110799;1258;23016;-78
2023/02/19 02:44:05;;;;;;;10.10;9.10;;;;;;;4.70;73.16;99990.02;110108;1265;22080;-78
2023/02/19 02:46:44;;;;;;;14.40;9.30;;;;;;;4.75;73.05;99992.35;110171;1266;22091;-79
2023/02/19 02:49:26;;;;;;;9.70;8.70;;;;;;;4.78;72.98;99985.73;110613;1265;23599;-79
2023/02/19 02:55:01;;;;;;;12.60;10.90;;;;;;;4.79;72.85;99982.10;109519;1271;22070;-77
2023/02/19 02:55:12;;;;;;;10.60;9.60;;;;;;;4.80;72.98;99983.28;109349;1274;23880;-77
2023/02/19 02:57:49;;;;;;;9.30;8.40;;;;;;;4.82;72.81;99979.27;109384;1272;22025;-77
2023/02/19 03:02:09;;;;;;;13.20;9.40;;;;;;;4.84;72.71;99985.44;109349;1267;21980;-79
2023/02/19 03:03:26;;;;;;;11.40;9.90;;;;;;;4.82;72.67;99988.42;109805;1270;21990;-79
2023/02/19 03:06:06;;;;;;;9.60;8.10;;;;;;;4.81;72.67;99986.35;109280;1270;21987;-78
2023/02/19 03:09:10;;;;;;;11.10;9.10;;;;;;;4.81;72.58;99984.30;109600;1270;21979;-77
2023/02/19 03:20:54;;;;;;;10.70;8.80;;;;;;;4.76;72.60;99960.77;109579;1271;22022;-78
2023/02/19 03:26:39;;;;;;;10.40;9.20;;;;;;;4.76;72.49;99968.35;109045;1274;23726;-79
2023/02/19 03:29:34;;;;;;;;;;;;;;;;;;;;;
2023/02/19 03:32:17;;;;;;;9.00;7.50;;;;;;;4.76;72.45;99968.17;108837;1277;22056;-78
2023/02/19 03:34:58;;;;;;;12.40;8.80;;;;;;;4.77;72.55;99967.82;108732;1277;21992;-77
2023/02/19 03:38:21;;;;;;;11.30;8.80;;;;;;;4.79;72.47;99961.23;109000;1277;21998;-79
2023/02/19 03:41:12;;;;;;;11.20;8.40;;;;;;;4.77;72.63;99954.73;108978;1277;22076;-79
2023/02/19 03:44:24;;;;;;;11.00;8.60;;;;;;;4.75;72.43;99947.17;108899;1277;22004;-79
2023/02/19 03:47:25;;;;;;;8.70;7.80;;;;;;;4.73;72.36;99945.33;109228;1264;22009;-78
2023/02/19 03:50:14;;;;;;;15.10;9.40;;;;;;;4.74;72.39;99948.93;111077;1255;21984;-78
2023/02/19 03:53:30;;;;;;;11.10;9.60;;;;;;;4.73;72.45;99947.22;111226;1255;22405;-79
2023/02/19 03:56:30;;;;;;;17.90;16.10;;;;;;;4.76;72.51;99948.70;111133;1252;21919;-78
2023/02/19 03:59:45;;;;;;;19.30;17.10;;;;;;;4.78;72.42;99952.27;111170;1255;23004;-78
2023/02/19 04:02:38;;;;;;;14.70;11.60;;;;;;;4.81;72.36;99953.60;111027;1254;22961;-79
2023/02/19 04:05:24;;;;;;;11.90;10.70;;;;;;;4.83;72.33;99949.25;111376;1254;21974;-79
2023/02/19 04:08:09;;;;;;;16.00;13.90;;;;;;;4.85;72.37;99943.52;111191;1254;21920;-78
2023/02/19 04:10:48;;;;;;;14.30;12.80;;;;;;;4.86;72.24;99946.77;111208;1254;23007;-78
2023/02/19 04:13:43;;;;;;;13.00;11.60;;;;;;;4.87;72.11;99942.63;110994;1254;21980;-78
2023/02/19 04:16:32;;;;;;;11.70;10.40;;;;;;;4.85;72.17;99941.26;111131;1243;23113;-79
2023/02/19 04:19:14;;;;;;;10.80;8.90;;;;;;;4.84;72.13;99940.77;110961;1255;22603;-78
2023/02/19 04:21:49;;;;;;;10.70;9.40;;;;;;;4.84;72.05;99931.64;111008;1255;21974;-78
2023/02/19 04:28:02;;;;;;;12.60;10.90;;;;;;;4.81;71.93;99915.51;110551;1262;22879;-80
2023/02/19 04:34:22;;;;;;;11.20;10.10;;;;;;;4.73;72.10;99915.15;109837;1269;23755;-79
2023/02/19 04:37:13;;;;;;;9.50;8.40;;;;;;;4.77;72.09;99926.11;109552;1270;21997;-78
2023/02/19 04:39:54;;;;;;;12.30;9.20;;;;;;;4.76;72.07;99933.20;109226;1274;22111;-76
2023/02/19 04:42:33;;;;;;;10.80;8.10;;;;;;;4.75;72.11;99936.66;108796;1279;23901;-77
2023/02/19 04:45:29;;;;;;;13.00;9.30;;;;;;;4.72;72.03;99927.25;108680;1279;22011;-77
2023/02/19 04:48:14;;;;;;;11.70;10.00;;;;;;;4.67;72.01;99933.73;108557;1279;22741;-78
2023/02/19 04:50:56;;;;;;;10.80;8.80;;;;;;;4.65;72.07;99932.90;108584;1279;23952;-76
2023/02/19 04:53:42;;;;;;;13.70;9.60;;;;;;;4.61;72.05;99931.59;108673;1279;22310;-77
2023/02/19 04:56:21;;;;;;;17.70;9.90;;;;;;;4.57;72.10;99934.08;108742;1279;22007;-77
2023/02/19 04:59:09;;;;;;;12.50;9.30;;;;;;;4.54;72.10;99938.45;109411;1268;21987;-79
2023/02/19 05:01:58;;;;;;;12.20;8.40;;;;;;;4.50;72.15;99933.02;110233;1262;23047;-77
2023/02/19 05:04:44;;;;;;;10.80;8.80;;;;;;;4.47;72.20;99934.29;110746;1255;24411;-78
2023/02/19 05:07:38;;;;;;;12.40;8.70;;;;;;;4.44;72.25;99937.80;110811;1255;22223;-77
2023/02/19 05:10:42;;;;;;;11.60;8.10;;;;;;;4.43;72.32;99945.04;111115;1255;21967;-78
2023/02/19 05:13:28;;;;;;;10.60;8.40;;;;;;;4.43;72.36;99945.39;110977;1255;21968;-77
2023/02/19 05:16:15;;;;;;;11.10;8.40;;;;;;;4.46;72.39;99947.22;110400;1262;23625;-77
2023/02/19 05:18:55;;;;;;;11.70;9.10;;;;;;;4.48;72.38;99950.64;110589;1261;23012;-75
2023/02/19 05:21:36;;;;;;;14.90;10.70;;;;;;;4.50;72.50;99954.38;110467;1262;23153;-77
2023/02/19 05:24:23;;;;;;;12.80;9.50;;;;;;;4.50;72.44;99950.23;110263;1265;22274;-77
2023/02/19 05:27:04;;;;;;;;;;;;;;;4.50;72.49;99945.09;110100;1262;21998;-78
2023/02/19 05:29:56;;;;;;;13.60;9.60;;;;;;;4.43;72.82;99948.15;110367;1265;22011;-77
2023/02/19 05:32:44;;;;;;;11.10;10.00;;;;;;;4.44;72.77;99950.53;110191;1265;23032;-80
2023/02/19 05:35:31;;;;;;;11.90;10.20;;;;;;;4.47;72.69;99950.65;110630;1259;22953;-78
2023/02/19 05:38:04;;;;;;;14.20;10.90;;;;;;;4.48;72.76;99939.10;110731;1259;21968;-79
2023/02/19 05:40:48;;;;;;;12.30;9.70;;;;;;;4.52;72.60;99940.41;110802;1259;21966;-79
2023/02/19 05:43:51;;;;;;;12.60;9.20;;;;;;;4.52;72.64;99941.25;110948;1255;21963;-78
2023/02/19 05:46:38;;;;;;;12.70;10.10;;;;;;;4.51;72.60;99942.64;110998;1255;21959;-77
2023/02/19 05:49:26;;;;;;;12.10;10.10;;;;;;;4.52;72.54;99949.87;110828;1255;21992;-79
2023/02/19 05:52:15;;;;;;;13.00;8.60;;;;;;;4.53;72.56;99950.88;110412;1261;22819;-78
2023/02/19 05:57:58;;;;;;;13.20;9.70;;;;;;;4.54;72.66;99929.51;109980;1267;22454;-79
2023/02/19 06:00:47;;;;;;;15.30;10.60;;;;;;;4.57;72.54;99928.76;110152;1266;21984;-78
2023/02/19 06:03:25;;;;;;;14.40;11.30;;;;;;;4.56;72.39;99940.14;109872;1267;22446;-78
2023/02/19 06:06:07;;;;;;;13.10;9.10;;;;;;;4.54;72.34;99940.52;110055;1265;21950;-77
2023/02/19 06:08:49;;;;;;;11.70;8.20;;;;;;;4.52;72.35;99940.73;110208;1264;21999;-78
2023/02/19 06:11:42;;;;;;;11.10;8.20;;;;;;;4.51;72.44;99941.61;106718;1265;4537643;-80
2023/02/19 06:14:38;;;;;;;17.40;10.20;;;;;;;4.49;72.52;99947.69;110281;1265;22123;-80
2023/02/19 06:18:00;;;;;;;16.40;10.00;;;;;;;4.48;72.65;99950.81;111227;1255;21992;-79
2023/02/19 06:20:57;;;;;;;17.40;10.60;;;;;;;4.51;72.70;99952.65;110925;1254;22036;-79
2023/02/19 06:23:47;;;;;;;15.80;11.00;;;;;;;4.57;72.70;99957.54;110976;1255;21972;-78
2023/02/19 06:27:00;;;;;;;17.00;10.90;;;;;;;4.60;72.65;99956.95;111256;1254;22449;-78
2023/02/19 06:29:54;;;;;;;15.00;10.80;;;;;;;4.59;72.51;99956.63;111236;1254;23583;-79
2023/02/19 06:32:32;;;;;;;14.90;9.90;;;;;;;4.60;72.51;99952.82;111073;1254;22004;-80
2023/02/19 06:35:51;;;;;;;15.30;8.50;;;;;;;4.60;72.53;99954.20;111181;1254;21981;-78
2023/02/19 06:39:04;;;;;;;12.50;9.20;;;;;;;4.59;72.48;99962.83;111128;1255;22739;-79
2023/02/19 06:42:07;;;;;;;15.10;9.80;;;;;;;4.60;72.54;99963.52;111181;1254;21960;-80
2023/02/19 06:44:58;;;;;;;14.70;8.60;;;;;;;4.64;72.48;99957.39;111253;1254;23605;-81
2023/02/19 06:47:49;;;;;;;15.10;11.50;;;;;;;4.66;72.44;99957.35;111087;1255;21960;-80
2023/02/19 06:50:29;;;;;;;20.40;10.20;;;;;;;4.71;72.49;99958.11;111424;1254;22734;-78
2023/02/19 06:53:07;;;;;;;15.60;9.30;;;;;;;4.75;72.44;99960.45;110998;1254;21968;-78
2023/02/19 06:56:07;;;;;;;22.60;10.30;;;;;;;4.75;72.33;99968.90;110712;1254;23583;-77
2023/02/19 06:58:45;;;;;;;12.60;9.50;;;;;;;4.77;72.41;99973.17;111106;1254;21987;-77
2023/02/19 07:01:38;;;;;;;17.20;9.20;;;;;;;4.79;72.38;99965.73;111192;1255;23741;-76
2023/02/19 07:04:29;;;;;;;16.30;9.50;;;;;;;4.82;72.35;99965.48;110953;1255;22050;-77
2023/02/19 07:07:11;;;;;;;12.50;9.60;;;;;;;4.84;72.43;99965.95;110559;1262;22021;-77
2023/02/19 07:09:45;;;;;;;14.10;9.30;;;;;;;4.89;72.49;99964.30;110672;1262;21977;-78
2023/02/19 07:12:22;;;;;;;12.80;8.30;;;;;;;4.99;72.69;99967.39;110267;1260;21975;-78
2023/02/19 07:14:59;;;;;;;13.50;8.20;;;;;;;5.10;72.69;99965.41;110675;1262;21977;-78
2023/02/19 07:17:48;;;;;;;15.40;9.50;;;;;;;5.19;72.63;99968.00;110449;1262;23109;-79
2023/02/19 07:20:32;;;;;;;16.10;10.30;;;;;;;5.26;72.62;99977.83;110460;1261;21971;-77
2023/02/19 07:23:04;;;;;;;17.20;10.90;;;;;;;5.32;72.31;99975.11;109816;1267;22972;-78
2023/02/19 07:25:38;;;;;;;13.20;9.20;;;;;;;5.38;72.19;99986.02;109798;1267;23723;-78
2023/02/19 07:28:23;;;;;;;;;;;;;;;;;;;;;
2023/02/19 07:31:27;;;;;;;17.40;14.70;;;;;;;5.39;71.97;99988.76;109385;1271;22029;-78
2023/02/19 07:34:17;;;;;;;18.90;12.10;;;;;;;5.40;71.88;99994.44;109586;1273;22340;-79
2023/02/19 07:37:23;;;;;;;14.60;8.00;;;;;;;5.38;71.73;100002.58;109445;1273;22003;-79
2023/02/19 07:47:01;;;;;;;13.50;6.90;;;;;;;5.25;71.54;100000.29;110110;1268;23792;-76
2023/02/19 07:49:45;;;;;;;9.40;6.50;;;;;;;5.24;71.39;100000.48;110312;1264;21732;-76
2023/02/19 07:52:56;;;;;;;13.90;8.70;;;;;;;5.17;71.20;99996.16;109671;1268;22137;-77
2023/02/19 07:55:45;;;;;;;22.10;17.70;;;;;;;5.11;71.13;99986.76;110205;1268;21981;-80
2023/02/19 07:58:35;;;;;;;13.60;9.50;;;;;;;5.08;71.29;99990.30;109865;1268;22006;-78
2023/02/19 08:04:51;;;;;;;14.50;8.00;;;;;;;5.25;71.92;100007.19;109828;1269;22074;-78
2023/02/19 08:16:00;;;;;;;11.70;8.10;;;;;;;5.57;71.35;100028.59;109678;1271;22083;-78
2023/02/19 08:19:13;;;;;;;14.30;9.70;;;;;;;5.56;70.93;100035.15;109818;1271;23828;-81
2023/02/19 08:22:29;;;;;;;12.10;8.80;;;;;;;5.55;70.60;100033.80;110244;1266;21982;-79
2023/02/19 08:30:03;;;;;;;11.60;9.70;;;;;;;5.53;70.55;100029.88;109334;1272;22043;-80
2023/02/19 08:33:35;;;;;;;18.50;10.20;;;;;;;5.53;70.62;100034.55;109075;1278;22011;-80
2023/02/19 08:36:41;;;;;;;13.40;9.70;;;;;;;5.55;70.54;100033.09;109234;1276;22374;-82
2023/02/19 08:39:57;;;;;;;14.40;9.30;;;;;;;5.56;70.34;100030.49;109131;1277;23257;-79
2023/02/19 08:43:03;;;;;;;17.70;10.00;;;;;;;5.55;70.24;100033.45;108779;1282;22008;-80
2023/02/19 08:46:24;;;;;;;15.20;10.40;;;;;;;5.51;70.06;100033.89;108605;1279;21998;-80
2023/02/19 08:49:25;;;;;;;33.20;16.30;;;;;;;5.50;70.25;100037.00;109130;1279;22776;-80
2023/02/19 08:52:51;;;;;;;22.30;13.10;;;;;;;5.63;70.69;100046.23;109379;1275;22009;-80
2023/02/19 08:55:30;;;;;;;19.00;13.10;;;;;;;5.78;70.61;100047.60;109286;1272;21987;-78
2023/02/19 08:58:25;;;;;;;28.10;16.80;;;;;;;5.90;70.47;100051.83;109293;1275;22505;-78
2023/02/19 09:01:45;;;;;;;;;;;;;;;;;;;;;
2023/02/19 09:04:36;;;;;;;12.80;9.30;;;;;;;6.14;70.17;100061.66;109355;1274;22015;-79
2023/02/19 09:07:34;;;;;;;12.90;9.10;;;;;;;6.24;69.56;100067.63;108910;1279;23889;-79
2023/02/19 09:10:13;;;;;;;14.60;9.60;;;;;;;6.18;68.65;100066.04;108836;1274;21990;-78
2023/02/19 09:13:01;;;;;;;14.10;8.90;;;;;;;6.09;68.22;100059.00;109270;1276;22002;-79
2023/02/19 09:15:41;;;;;;;17.90;10.50;;;;;;;6.01;68.04;100051.94;109439;1268;21985;-79
2023/02/19 09:18:15;;;;;;;12.90;8.80;;;;;;;5.95;67.71;100063.65;109035;1274;22006;-79
2023/02/19 09:21:14;;;;;;;14.50;8.20;;;;;;;5.93;67.87;100077.50;109523;1274;21992;-80
2023/02/19 09:23:47;;;;;;;26.10;19.40;;;;;;;5.96;67.87;100083.14;109527;1274;21993;-79
2023/02/19 09:26:19;;;;;;;12.40;9.40;;;;;;;6.01;67.43;100084.41;110319;1268;23836;-79
2023/02/19 09:28:58;;;;;;;13.50;9.00;;;;;;;6.01;67.08;100086.51;110395;1268;21979;-80
2023/02/19 09:31:41;;;;;;;18.90;10.90;;;;;;;6.01;67.07;100092.36;110320;1267;21995;-79
2023/02/19 09:34:30;;;;;;;;;;;;;;;;;;;;;
2023/02/19 09:37:19;;;;;;;;;;;;;;;;;;;;;
2023/02/19 09:40:22;;;;;;;16.10;8.80;;;;;;;6.06;65.98;100099.16;110681;1262;22429;-79
2023/02/19 09:43:19;;;;;;;13.70;8.60;;;;;;;6.04;65.75;100100.94;110815;1262;23025;-79
2023/02/19 09:46:06;;;;;;;13.00;7.40;;;;;;;6.02;65.52;100111.19;110524;1262;23622;-80
2023/02/19 09:49:26;;;;;;;15.30;8.50;;;;;;;5.90;64.93;100116.26;110732;1257;22473;-79
2023/02/19 09:52:51;;;;;;;12.90;7.70;;;;;;;5.76;64.83;100123.11;110950;1262;21993;-79
2023/02/19 09:56:01;;;;;;;;;;;;;;;;;;;;;
2023/02/19 09:59:00;;;;;;;15.60;8.50;;;;;;;5.66;64.44;100127.30;109370;1272;21984;-80
2023/02/19 10:02:53;;;;;;;22.50;8.60;;;;;;;5.69;64.54;100133.98;109463;1271;22049;-84
2023/02/19 10:07:02;;;;;;;;;;;;;;;;;;;;;
2023/02/19 10:10:24;;;;;;;;;;;;;;;;;;;;;
2023/02/19 10:14:23;;;;;;;;;;;;;;;;;;;;;
2023/02/19 10:17:14;;;;;;;13.30;7.60;;;;;;;5.43;63.80;100157.45;110329;1260;23807;-80
2023/02/19 10:20:02;;;;;;;17.10;9.30;;;;;;;5.44;63.80;100162.61;111047;1255;21977;-80
2023/02/19 10:23:35;;;;;;;13.50;8.20;;;;;;;5.40;63.62;100167.34;110776;1260;21984;-79
2023/02/19 10:26:53;;;;;;;17.40;9.30;;;;;;;5.46;63.64;100174.83;110609;1260;23593;-79
2023/02/19 10:29:28;;;;;;;15.90;8.30;;;;;;;5.46;63.10;100176.39;110676;1261;22885;-79
2023/02/19 10:32:28;;;;;;;12.10;8.30;;;;;;;5.44;63.10;100176.59;110557;1250;23030;-79
2023/02/19 10:35:48;;;;;;;;;;;;;;;;;;;;;
2023/02/19 10:39:51;;;;;;;20.20;9.90;;;;;;;5.44;62.94;100180.21;110339;1267;21995;-79
2023/02/19 10:42:44;;;;;;;20.70;11.40;;;;;;;5.52;63.24;100180.08;109839;1263;21977;-78
2023/02/19 10:45:57;;;;;;;12.40;8.50;;;;;;;5.71;63.30;100181.41;109911;1266;21984;-81
2023/02/19 10:49:09;;;;;;;14.20;8.00;;;;;;;6.15;62.51;100187.92;109524;1272;22187;-80
2023/02/19 10:52:17;;;;;;;10.60;6.80;;;;;;;6.36;61.77;100195.59;109425;1269;21992;-80
2023/02/19 10:55:33;;;;;;;;;;;;;;;;;;;;;
2023/02/19 10:59:04;;;;;;;;;;;;;;;;;;;;;
2023/02/19 11:02:49;;;;;;;18.50;10.80;;;;;;;6.25;61.63;100203.42;108609;1286;22259;-80
2023/02/19 11:05:46;;;;;;;;;;;;;;;;;;;;;
2023/02/19 11:08:26;;;;;;;15.50;7.00;;;;;;;6.65;59.19;100216.36;108671;1284;22355;-80
2023/02/19 11:12:03;;;;;;;13.40;6.20;;;;;;;6.40;59.03;100222.11;108740;1284;22010;-79
2023/02/19 11:15:07;;;;;;;;;;;;;;;;;;;;;
2023/02/19 11:18:26;;;;;;;10.10;6.00;;;;;;;6.40;59.47;100223.15;108619;1284;23818;-82
2023/02/19 11:21:35;;;;;;;12.60;6.00;;;;;;;6.29;59.05;100228.60;108871;1278;21999;-82
2023/02/19 11:25:43;;;;;;;13.00;6.40;;;;;;;6.12;58.99;100226.70;108910;1279;22016;-80
2023/02/19 11:29:19;;;;;;;14.10;7.40;;;;;;;6.01;59.68;100222.98;108552;1282;21957;-82
2023/02/19 11:32:32;;;;;;;18.50;7.20;;;;;;;6.14;59.46;100229.42;108901;1281;22290;-78
2023/02/19 11:36:30;;;;;;;12.60;7.00;;;;;;;6.05;58.67;100223.91;108672;1280;21995;-79
2023/02/19 11:39:33;;;;;;;11.40;6.00;;;;;;;6.01;58.67;100226.23;108553;1283;23644;-79
2023/02/19 11:43:15;;;;;;;17.90;8.90;;;;;;;5.94;58.59;100227.23;108636;1281;22007;-78
2023/02/19 11:46:25;;;;;;;13.10;6.60;;;;;;;5.87;58.65;100228.39;108793;1274;22018;-77
2023/02/19 11:50:06;;;;;;;;;;;;;;;;;;;;;
2023/02/19 11:53:42;;;;;;;11.70;7.10;;;;;;;5.91;59.00;100221.41;108821;1281;23052;-79
2023/02/19 11:57:34;;;;;;;16.00;10.50;;;;;;;6.00;57.70;100222.80;108866;1278;22478;-78
2023/02/19 12:00:52;;;;;;;9.20;4.50;;;;;;;5.97;56.98;100223.55;108922;1268;23145;-78
2023/02/19 12:04:09;;;;;;;10.90;5.30;;;;;;;5.97;56.01;100226.84;109408;1272;23039;-77
2023/02/19 12:08:09;;;;;;;;;;;;;;;;;;;;;
2023/02/19 12:11:58;;;;;;;13.20;5.90;;;;;;;5.97;55.39;100235.83;110477;1261;23730;-80
2023/02/19 12:15:57;;;;;;;9.00;4.20;;;;;;;5.84;55.15;100242.96;110414;1262;24312;-78
2023/02/19 12:20:01;;;;;;;11.50;6.50;;;;;;;5.69;54.94;100246.72;110641;1261;22879;-78
2023/02/19 12:23:23;;;;;;;11.50;5.40;;;;;;;5.59;55.19;100256.56;109148;1275;22044;-79
2023/02/19 12:27:06;;;;;;;;;;;;;;;;;;;;;
2023/02/19 12:30:46;;;;;;;10.70;5.00;;;;;;;5.41;55.66;100272.95;108799;1279;22012;-79
2023/02/19 12:34:01;;;;;;;11.70;5.40;;;;;;;5.44;56.09;100277.39;109030;1275;21996;-77
2023/02/19 12:37:19;;;;;;;10.80;5.30;;;;;;;5.56;56.43;100287.20;109185;1275;21989;-77
2023/02/19 12:40:43;;;;;;;10.20;5.00;;;;;;;5.59;56.10;100289.89;109177;1271;21990;-77
2023/02/19 12:43:31;;;;;;;9.00;4.60;;;;;;;5.59;56.04;100290.23;109249;1271;24313;-77
2023/02/19 12:46:24;;;;;;;20.60;16.20;;;;;;;5.64;56.20;100289.97;109374;1271;22005;-78
2023/02/19 12:49:38;;;;;;;13.50;7.10;;;;;;;5.75;56.47;100293.73;109462;1271;22066;-79
2023/02/19 12:52:46;;;;;;;9.50;4.10;;;;;;;5.82;56.08;100295.85;109534;1271;22021;-79
2023/02/19 12:56:14;;;;;;;10.30;5.50;;;;;;;5.82;55.78;100289.98;108972;1276;24591;-78
2023/02/19 12:59:55;;;;;;;9.80;4.50;;;;;;;5.81;55.82;100295.52;109837;1262;23046;-79
2023/02/19 13:03:11;;;;;;;10.00;4.70;;;;;;;5.72;55.73;100300.35;109919;1267;23675;-81
2023/02/19 13:06:55;;;;;;;9.50;5.20;;;;;;;5.57;55.69;100302.36;109357;1269;21994;-78
2023/02/19 13:09:49;;;;;;;13.30;5.00;;;;;;;5.50;55.76;100307.31;109277;1273;23624;-79
2023/02/19 13:13:07;;;;;;;10.30;4.50;;;;;;;5.47;55.93;100311.33;109327;1269;23652;-78
2023/02/19 13:16:22;;;;;;;16.00;5.10;;;;;;;5.45;56.09;100308.27;109722;1268;22016;-78
2023/02/19 13:19:20;;;;;;;19.20;5.50;;;;;;;5.50;56.52;100313.88;109142;1272;24339;-78
2023/02/19 13:26:25;;;;;;;12.40;5.60;;;;;;;5.59;56.31;100322.35;110139;1269;22429;-77
2023/02/19 13:29:32;;;;;;;8.10;3.90;;;;;;;5.58;56.07;100328.92;110044;1268;21995;-78
2023/02/19 13:32:57;;;;;;;7.40;3.90;;;;;;;5.58;55.99;100327.72;109937;1269;22027;-78
2023/02/19 13:36:28;;;;;;;8.10;3.50;;;;;;;5.49;55.67;100335.29;109786;1268;22759;-79
2023/02/19 13:42:35;;;;;;;8.50;3.80;;;;;;;5.45;55.36;100341.76;110635;1255;23092;-80
2023/02/19 13:45:48;;;;;;;11.50;3.90;;;;;;;5.53;55.27;100351.27;110628;1261;21970;-78
2023/02/19 13:48:39;;;;;;;8.10;3.50;;;;;;;5.67;55.06;100360.00;110094;1267;22128;-78
2023/02/19 13:51:27;;;;;;;;;;;;;;;5.70;54.67;100368.94;109794;1267;22023;-78
2023/02/19 13:54:35;;;;;;;10.10;4.60;;;;;;;5.64;54.63;100370.42;110259;1266;22158;-77
2023/02/19 13:57:43;;;;;;;12.10;4.60;;;;;;;5.63;54.51;100372.87;109461;1272;22864;-78
2023/02/19 14:01:17;;;;;;;12.80;6.20;;;;;;;5.66;54.69;100375.38;109467;1272;21984;-77
2023/02/19 14:04:47;;;;;;;12.40;4.90;;;;;;;5.66;54.33;100375.22;109254;1273;22167;-78
2023/02/19 14:07:48;;;;;;;12.30;4.60;;;;;;;5.56;54.09;100371.41;109700;1268;23111;-79
2023/02/19 14:11:08;;;;;;;29.80;23.40;;;;;;;5.46;53.92;100369.52;110309;1268;22127;-77
2023/02/19 14:13:54;;;;;;;7.70;4.10;;;;;;;5.36;53.79;100374.69;109301;1271;22044;-78
2023/02/19 14:16:45;;;;;;;10.40;3.50;;;;;;;5.29;53.69;100377.39;109399;1266;21985;-77
2023/02/19 14:20:03;;;;;;;9.40;3.30;;;;;;;5.26;53.59;100383.46;109357;1273;22965;-78
2023/02/19 14:23:07;;;;;;;7.70;3.30;;;;;;;5.28;53.63;100383.27;109071;1275;22004;-79
2023/02/19 14:26:07;;;;;;;7.90;3.20;;;;;;;5.29;53.52;100383.07;108851;1280;23735;-78
2023/02/19 14:29:01;;;;;;;11.10;3.70;;;;;;;5.27;53.27;100384.15;108604;1282;24089;-78
2023/02/19 14:31:49;;;;;;;9.60;4.10;;;;;;;5.18;53.20;100387.21;108469;1288;22439;-78
2023/02/19 14:34:48;;;;;;;12.60;4.30;;;;;;;5.12;53.14;100385.06;108259;1288;22027;-77
2023/02/19 14:37:57;;;;;;;8.70;3.50;;;;;;;5.05;52.89;100386.03;108217;1287;22107;-78
2023/02/19 14:41:04;;;;;;;6.40;3.70;;;;;;;5.00;52.90;100385.24;108543;1284;23709;-79
2023/02/19 14:44:20;;;;;;;9.70;3.80;;;;;;;4.94;52.78;100388.25;108762;1281;21989;-77
2023/02/19 14:47:29;;;;;;;10.80;4.30;;;;;;;4.91;52.90;100395.88;108829;1275;23203;-79
2023/02/19 14:50:48;;;;;;;12.50;6.20;;;;;;;4.87;52.89;100402.48;109643;1262;23667;-78
2023/02/19 14:53:53;;;;;;;11.80;4.20;;;;;;;4.90;53.17;100403.64;110615;1261;21988;-79
2023/02/19 14:56:50;;;;;;;8.00;4.00;;;;;;;4.98;53.20;100411.83;110532;1260;23021;-77
2023/02/19 15:00:04;;;;;;;18.30;11.30;;;;;;;5.07;53.09;100414.46;110691;1261;22740;-77
2023/02/19 15:02:58;;;;;;;9.00;4.00;;;;;;;5.11;52.66;100422.51;110615;1261;23841;-78
2023/02/19 15:06:36;;;;;;;10.10;3.50;;;;;;;5.04;52.35;100426.56;110655;1260;23078;-77
2023/02/19 15:10:01;;;;;;;11.80;4.30;;;;;;;4.95;52.47;100426.86;110262;1259;21988;-78
2023/02/19 15:13:02;;;;;;;9.80;3.40;;;;;;;4.94;52.54;100436.18;110058;1266;21979;-77
2023/02/19 15:15:57;;;;;;;13.30;4.80;;;;;;;4.95;52.55;100445.14;110056;1267;22019;-78